sensor_id;sensor_type;location;lat;lon;timestamp;P1;durP1;ratioP1;P2;durP2;ratioP2
70744;SDS011;59284;31.390;34.904;2023-02-01T00:02:03;7.83;;;2.30;;
70744;SDS011;59284;31.390;34.904;2023-02-01T00:04:28;5.20;;;1.60;;
70744;SDS011;59284;31.390;34.904;2023-02-01T00:06:54;10.30;;;2.60;;
70744;SDS011;59284;31.390;34.904;2023-02-01T00:09:19;6.83;;;2.27;;
70744;SDS011;59284;31.390;34.904;2023-02-01T00:11:45;13.23;;;2.37;;
70744;SDS011;59284;31.390;34.904;2023-02-01T00:14:10;6.83;;;1.87;;
70744;SDS011;59284;31.390;34.904;2023-02-01T00:16:35;7.82;;;2.25;;
70744;SDS011;59284;31.390;34.904;2023-02-01T00:19:02;10.33;;;1.80;;
70744;SDS011;59284;31.390;34.904;2023-02-01T00:21:28;13.48;;;2.25;;
70744;SDS011;59284;31.390;34.904;2023-02-01T00:23:54;7.30;;;2.00;;
70744;SDS011;59284;31.390;34.904;2023-02-01T00:26:22;10.45;;;1.88;;
70744;SDS011;59284;31.390;34.904;2023-02-01T00:28:50;9.35;;;2.75;;
70744;SDS011;59284;31.390;34.904;2023-02-01T00:31:16;9.70;;;1.63;;
70744;SDS011;59284;31.390;34.904;2023-02-01T00:33:41;11.23;;;2.93;;
70744;SDS011;59284;31.390;34.904;2023-02-01T00:36:07;16.80;;;2.70;;
70744;SDS011;59284;31.390;34.904;2023-02-01T00:38:34;7.40;;;2.03;;
70744;SDS011;59284;31.390;34.904;2023-02-01T00:41:05;9.18;;;1.60;;
70744;SDS011;59284;31.390;34.904;2023-02-01T00:43:31;6.88;;;2.88;;
70744;SDS011;59284;31.390;34.904;2023-02-01T00:45:56;6.60;;;1.87;;
70744;SDS011;59284;31.390;34.904;2023-02-01T00:48:22;12.48;;;2.97;;
70744;SDS011;59284;31.390;34.904;2023-02-01T00:50:47;12.17;;;2.13;;
70744;SDS011;59284;31.390;34.904;2023-02-01T00:53:12;5.57;;;1.80;;
70744;SDS011;59284;31.390;34.904;2023-02-01T00:55:38;5.27;;;1.40;;
70744;SDS011;59284;31.390;34.904;2023-02-01T00:58:03;7.07;;;1.90;;
70744;SDS011;59284;31.390;34.904;2023-02-01T01:00:31;10.03;;;2.23;;
70744;SDS011;59284;31.390;34.904;2023-02-01T01:02:57;7.35;;;2.22;;
70744;SDS011;59284;31.390;34.904;2023-02-01T01:05:22;4.97;;;1.83;;
70744;SDS011;59284;31.390;34.904;2023-02-01T01:07:48;7.93;;;2.65;;
70744;SDS011;59284;31.390;34.904;2023-02-01T01:10:14;5.60;;;2.00;;
70744;SDS011;59284;31.390;34.904;2023-02-01T01:12:39;7.93;;;2.70;;
70744;SDS011;59284;31.390;34.904;2023-02-01T01:15:06;6.78;;;2.47;;
70744;SDS011;59284;31.390;34.904;2023-02-01T01:17:31;10.30;;;2.50;;
70744;SDS011;59284;31.390;34.904;2023-02-01T01:19:57;5.65;;;1.50;;
70744;SDS011;59284;31.390;34.904;2023-02-01T01:22:22;5.03;;;2.33;;
70744;SDS011;59284;31.390;34.904;2023-02-01T01:24:47;4.80;;;1.77;;
70744;SDS011;59284;31.390;34.904;2023-02-01T01:27:13;8.03;;;1.63;;
70744;SDS011;59284;31.390;34.904;2023-02-01T01:29:39;14.63;;;2.88;;
70744;SDS011;59284;31.390;34.904;2023-02-01T01:32:04;8.73;;;2.40;;
70744;SDS011;59284;31.390;34.904;2023-02-01T01:34:29;8.87;;;2.20;;
70744;SDS011;59284;31.390;34.904;2023-02-01T01:36:55;6.40;;;2.03;;
70744;SDS011;59284;31.390;34.904;2023-02-01T01:39:20;10.60;;;2.30;;
70744;SDS011;59284;31.390;34.904;2023-02-01T01:41:46;7.73;;;2.70;;
70744;SDS011;59284;31.390;34.904;2023-02-01T01:46:55;6.40;;;2.20;;
70744;SDS011;59284;31.390;34.904;2023-02-01T01:49:21;5.53;;;2.50;;
70744;SDS011;59284;31.390;34.904;2023-02-01T01:51:49;8.02;;;2.65;;
70744;SDS011;59284;31.390;34.904;2023-02-01T01:54:20;8.95;;;2.10;;
70744;SDS011;59284;31.390;34.904;2023-02-01T01:56:46;8.53;;;2.17;;
70744;SDS011;59284;31.390;34.904;2023-02-01T01:59:14;11.35;;;2.35;;
70744;SDS011;59284;31.390;34.904;2023-02-01T02:01:39;13.32;;;2.15;;
70744;SDS011;59284;31.390;34.904;2023-02-01T02:04:05;8.00;;;2.53;;
70744;SDS011;59284;31.390;34.904;2023-02-01T02:06:39;6.72;;;2.40;;
70744;SDS011;59284;31.390;34.904;2023-02-01T02:09:05;8.83;;;2.20;;
70744;SDS011;59284;31.390;34.904;2023-02-01T02:11:31;5.05;;;1.85;;
70744;SDS011;59284;31.390;34.904;2023-02-01T02:13:56;6.90;;;2.27;;
70744;SDS011;59284;31.390;34.904;2023-02-01T02:24:17;9.25;;;2.13;;
70744;SDS011;59284;31.390;34.904;2023-02-01T02:34:40;8.27;;;2.70;;
70744;SDS011;59284;31.390;34.904;2023-02-01T02:37:18;4.43;;;1.98;;
70744;SDS011;59284;31.390;34.904;2023-02-01T02:39:50;5.40;;;2.17;;
70744;SDS011;59284;31.390;34.904;2023-02-01T02:45:09;10.55;;;1.98;;
70744;SDS011;59284;31.390;34.904;2023-02-01T02:48:00;8.27;;;2.50;;
70744;SDS011;59284;31.390;34.904;2023-02-01T02:50:29;14.32;;;2.50;;
70744;SDS011;59284;31.390;34.904;2023-02-01T02:53:17;12.85;;;2.50;;
70744;SDS011;59284;31.390;34.904;2023-02-01T02:56:03;16.13;;;2.10;;
70744;SDS011;59284;31.390;34.904;2023-02-01T02:58:49;7.15;;;2.15;;
70744;SDS011;59284;31.390;34.904;2023-02-01T03:01:33;10.82;;;2.05;;
70744;SDS011;59284;31.390;34.904;2023-02-01T03:04:17;7.18;;;1.95;;
70744;SDS011;59284;31.390;34.904;2023-02-01T03:06:46;12.13;;;2.60;;
70744;SDS011;59284;31.390;34.904;2023-02-01T03:09:18;8.57;;;1.85;;
70744;SDS011;59284;31.390;34.904;2023-02-01T03:11:44;6.25;;;1.50;;
70744;SDS011;59284;31.390;34.904;2023-02-01T03:14:28;8.97;;;1.90;;
70744;SDS011;59284;31.390;34.904;2023-02-01T03:16:59;4.15;;;1.50;;
70744;SDS011;59284;31.390;34.904;2023-02-01T03:19:37;9.15;;;1.77;;
70744;SDS011;59284;31.390;34.904;2023-02-01T03:22:09;5.45;;;1.15;;
70744;SDS011;59284;31.390;34.904;2023-02-01T03:24:40;14.35;;;2.53;;
70744;SDS011;59284;31.390;34.904;2023-02-01T03:29:52;9.80;;;1.90;;
70744;SDS011;59284;31.390;34.904;2023-02-01T03:32:19;3.97;;;1.40;;
70744;SDS011;59284;31.390;34.904;2023-02-01T03:34:45;6.30;;;1.80;;
70744;SDS011;59284;31.390;34.904;2023-02-01T03:37:11;6.90;;;1.70;;
70744;SDS011;59284;31.390;34.904;2023-02-01T03:39:59;4.40;;;1.60;;
70744;SDS011;59284;31.390;34.904;2023-02-01T03:42:48;6.30;;;1.45;;
70744;SDS011;59284;31.390;34.904;2023-02-01T03:45:14;7.50;;;1.83;;
70744;SDS011;59284;31.390;34.904;2023-02-01T03:47:46;4.17;;;1.40;;
70744;SDS011;59284;31.390;34.904;2023-02-01T03:50:14;7.20;;;2.85;;
70744;SDS011;59284;31.390;34.904;2023-02-01T03:52:53;6.82;;;1.67;;
70744;SDS011;59284;31.390;34.904;2023-02-01T03:55:20;8.75;;;2.15;;
70744;SDS011;59284;31.390;34.904;2023-02-01T03:57:50;8.32;;;2.42;;
70744;SDS011;59284;31.390;34.904;2023-02-01T04:02:42;11.95;;;2.83;;
70744;SDS011;59284;31.390;34.904;2023-02-01T04:05:08;10.83;;;2.10;;
70744;SDS011;59284;31.390;34.904;2023-02-01T04:07:33;7.90;;;2.00;;
70744;SDS011;59284;31.390;34.904;2023-02-01T04:09:59;7.78;;;2.35;;
70744;SDS011;59284;31.390;34.904;2023-02-01T04:12:25;7.57;;;2.70;;
70744;SDS011;59284;31.390;34.904;2023-02-01T04:14:51;13.25;;;2.35;;
70744;SDS011;59284;31.390;34.904;2023-02-01T04:17:16;11.30;;;2.10;;
70744;SDS011;59284;31.390;34.904;2023-02-01T04:19:42;11.27;;;2.87;;
70744;SDS011;59284;31.390;34.904;2023-02-01T04:22:07;5.03;;;1.97;;
70744;SDS011;59284;31.390;34.904;2023-02-01T04:24:32;7.50;;;2.20;;
70744;SDS011;59284;31.390;34.904;2023-02-01T04:26:58;11.13;;;2.50;;
70744;SDS011;59284;31.390;34.904;2023-02-01T04:29:23;7.27;;;1.70;;
70744;SDS011;59284;31.390;34.904;2023-02-01T04:31:49;9.63;;;2.00;;
70744;SDS011;59284;31.390;34.904;2023-02-01T04:34:14;13.47;;;2.40;;
70744;SDS011;59284;31.390;34.904;2023-02-01T04:36:40;7.55;;;1.65;;
70744;SDS011;59284;31.390;34.904;2023-02-01T04:39:08;13.03;;;2.20;;
70744;SDS011;59284;31.390;34.904;2023-02-01T04:41:33;6.95;;;2.70;;
70744;SDS011;59284;31.390;34.904;2023-02-01T04:43:59;10.03;;;2.30;;
70744;SDS011;59284;31.390;34.904;2023-02-01T04:46:24;11.50;;;2.17;;
70744;SDS011;59284;31.390;34.904;2023-02-01T04:48:50;9.63;;;2.83;;
70744;SDS011;59284;31.390;34.904;2023-02-01T04:51:15;8.20;;;2.10;;
70744;SDS011;59284;31.390;34.904;2023-02-01T04:53:41;7.33;;;1.83;;
70744;SDS011;59284;31.390;34.904;2023-02-01T04:56:06;8.63;;;2.03;;
70744;SDS011;59284;31.390;34.904;2023-02-01T04:58:33;6.45;;;2.58;;
70744;SDS011;59284;31.390;34.904;2023-02-01T05:00:58;8.10;;;1.60;;
70744;SDS011;59284;31.390;34.904;2023-02-01T05:03:23;13.02;;;1.63;;
70744;SDS011;59284;31.390;34.904;2023-02-01T05:05:49;8.07;;;2.33;;
70744;SDS011;59284;31.390;34.904;2023-02-01T05:08:14;12.23;;;2.03;;
70744;SDS011;59284;31.390;34.904;2023-02-01T05:10:40;10.23;;;1.90;;
70744;SDS011;59284;31.390;34.904;2023-02-01T05:13:05;4.93;;;1.27;;
70744;SDS011;59284;31.390;34.904;2023-02-01T05:15:52;11.17;;;2.10;;
70744;SDS011;59284;31.390;34.904;2023-02-01T05:18:18;4.53;;;1.55;;
70744;SDS011;59284;31.390;34.904;2023-02-01T05:20:43;6.10;;;2.00;;
70744;SDS011;59284;31.390;34.904;2023-02-01T05:23:09;10.65;;;1.75;;
70744;SDS011;59284;31.390;34.904;2023-02-01T05:25:34;8.57;;;2.13;;
70744;SDS011;59284;31.390;34.904;2023-02-01T05:27:59;7.63;;;1.80;;
70744;SDS011;59284;31.390;34.904;2023-02-01T05:30:25;7.93;;;2.80;;
70744;SDS011;59284;31.390;34.904;2023-02-01T05:32:51;9.45;;;1.90;;
70744;SDS011;59284;31.390;34.904;2023-02-01T05:35:16;11.77;;;2.23;;
70744;SDS011;59284;31.390;34.904;2023-02-01T05:37:42;8.45;;;1.88;;
70744;SDS011;59284;31.390;34.904;2023-02-01T05:40:07;9.60;;;1.67;;
70744;SDS011;59284;31.390;34.904;2023-02-01T05:42:33;9.90;;;1.90;;
70744;SDS011;59284;31.390;34.904;2023-02-01T05:44:58;5.43;;;2.17;;
70744;SDS011;59284;31.390;34.904;2023-02-01T05:47:24;9.60;;;2.53;;
70744;SDS011;59284;31.390;34.904;2023-02-01T05:49:49;5.93;;;1.53;;
70744;SDS011;59284;31.390;34.904;2023-02-01T05:52:15;6.60;;;1.92;;
70744;SDS011;59284;31.390;34.904;2023-02-01T05:54:44;7.17;;;2.37;;
70744;SDS011;59284;31.390;34.904;2023-02-01T05:57:10;11.88;;;2.15;;
70744;SDS011;59284;31.390;34.904;2023-02-01T05:59:37;8.52;;;2.70;;
70744;SDS011;59284;31.390;34.904;2023-02-01T06:02:06;8.75;;;1.83;;
70744;SDS011;59284;31.390;34.904;2023-02-01T06:04:32;6.40;;;2.15;;
70744;SDS011;59284;31.390;34.904;2023-02-01T06:06:57;6.63;;;1.40;;
70744;SDS011;59284;31.390;34.904;2023-02-01T06:09:22;5.07;;;1.73;;
70744;SDS011;59284;31.390;34.904;2023-02-01T06:11:48;8.87;;;2.10;;
70744;SDS011;59284;31.390;34.904;2023-02-01T06:14:13;5.17;;;2.03;;
70744;SDS011;59284;31.390;34.904;2023-02-01T06:16:39;4.07;;;1.50;;
70744;SDS011;59284;31.390;34.904;2023-02-01T06:19:04;8.37;;;2.20;;
70744;SDS011;59284;31.390;34.904;2023-02-01T06:21:30;6.97;;;2.27;;
70744;SDS011;59284;31.390;34.904;2023-02-01T06:23:55;8.48;;;2.00;;
70744;SDS011;59284;31.390;34.904;2023-02-01T06:26:22;8.27;;;2.30;;
70744;SDS011;59284;31.390;34.904;2023-02-01T06:28:48;6.28;;;2.05;;
70744;SDS011;59284;31.390;34.904;2023-02-01T06:31:13;8.20;;;2.40;;
70744;SDS011;59284;31.390;34.904;2023-02-01T06:33:39;6.23;;;2.00;;
70744;SDS011;59284;31.390;34.904;2023-02-01T06:36:05;11.70;;;2.20;;
70744;SDS011;59284;31.390;34.904;2023-02-01T06:38:31;7.60;;;2.72;;
70744;SDS011;59284;31.390;34.904;2023-02-01T06:40:59;9.80;;;2.03;;
70744;SDS011;59284;31.390;34.904;2023-02-01T06:43:25;27.15;;;2.90;;
70744;SDS011;59284;31.390;34.904;2023-02-01T06:45:52;5.15;;;2.00;;
70744;SDS011;59284;31.390;34.904;2023-02-01T06:48:17;11.33;;;2.70;;
70744;SDS011;59284;31.390;34.904;2023-02-01T06:50:43;7.00;;;1.77;;
70744;SDS011;59284;31.390;34.904;2023-02-01T06:53:09;19.80;;;2.53;;
70744;SDS011;59284;31.390;34.904;2023-02-01T06:55:34;10.77;;;2.20;;
70744;SDS011;59284;31.390;34.904;2023-02-01T06:57:59;8.00;;;1.95;;
70744;SDS011;59284;31.390;34.904;2023-02-01T07:00:27;12.10;;;2.35;;
70744;SDS011;59284;31.390;34.904;2023-02-01T07:02:53;6.93;;;2.17;;
70744;SDS011;59284;31.390;34.904;2023-02-01T07:05:18;8.55;;;2.50;;
70744;SDS011;59284;31.390;34.904;2023-02-01T07:07:44;10.50;;;2.67;;
70744;SDS011;59284;31.390;34.904;2023-02-01T07:10:11;14.85;;;2.22;;
70744;SDS011;59284;31.390;34.904;2023-02-01T07:12:36;9.77;;;3.20;;
70744;SDS011;59284;31.390;34.904;2023-02-01T07:15:02;10.03;;;2.43;;
70744;SDS011;59284;31.390;34.904;2023-02-01T07:17:29;12.00;;;2.33;;
70744;SDS011;59284;31.390;34.904;2023-02-01T07:19:54;11.63;;;2.17;;
70744;SDS011;59284;31.390;34.904;2023-02-01T07:22:20;11.57;;;2.97;;
70744;SDS011;59284;31.390;34.904;2023-02-01T07:24:45;13.40;;;2.77;;
70744;SDS011;59284;31.390;34.904;2023-02-01T07:27:11;10.23;;;2.37;;
70744;SDS011;59284;31.390;34.904;2023-02-01T07:29:36;15.80;;;2.60;;
70744;SDS011;59284;31.390;34.904;2023-02-01T07:32:01;15.47;;;2.90;;
70744;SDS011;59284;31.390;34.904;2023-02-01T07:37:31;11.23;;;2.38;;
70744;SDS011;59284;31.390;34.904;2023-02-01T07:39:57;15.75;;;2.05;;
70744;SDS011;59284;31.390;34.904;2023-02-01T07:42:22;6.77;;;2.30;;
70744;SDS011;59284;31.390;34.904;2023-02-01T07:44:48;10.00;;;2.40;;
70744;SDS011;59284;31.390;34.904;2023-02-01T07:47:13;11.87;;;2.70;;
70744;SDS011;59284;31.390;34.904;2023-02-01T07:49:38;12.30;;;2.25;;
70744;SDS011;59284;31.390;34.904;2023-02-01T07:52:04;19.83;;;2.97;;
70744;SDS011;59284;31.390;34.904;2023-02-01T07:54:29;14.27;;;2.63;;
70744;SDS011;59284;31.390;34.904;2023-02-01T07:56:55;12.77;;;2.58;;
70744;SDS011;59284;31.390;34.904;2023-02-01T07:59:21;15.17;;;3.50;;
70744;SDS011;59284;31.390;34.904;2023-02-01T08:01:46;22.42;;;3.08;;
70744;SDS011;59284;31.390;34.904;2023-02-01T08:04:12;24.80;;;3.53;;
70744;SDS011;59284;31.390;34.904;2023-02-01T08:06:38;23.08;;;4.75;;
70744;SDS011;59284;31.390;34.904;2023-02-01T08:12:08;23.08;;;3.55;;
70744;SDS011;59284;31.390;34.904;2023-02-01T08:14:33;19.05;;;3.50;;
70744;SDS011;59284;31.390;34.904;2023-02-01T08:16:59;15.60;;;3.47;;
70744;SDS011;59284;31.390;34.904;2023-02-01T08:19:24;22.33;;;3.17;;
70744;SDS011;59284;31.390;34.904;2023-02-01T08:21:49;34.87;;;3.53;;
70744;SDS011;59284;31.390;34.904;2023-02-01T08:24:15;18.77;;;4.07;;
70744;SDS011;59284;31.390;34.904;2023-02-01T08:26:40;21.73;;;4.00;;
70744;SDS011;59284;31.390;34.904;2023-02-01T08:29:06;15.10;;;2.63;;
70744;SDS011;59284;31.390;34.904;2023-02-01T08:31:32;31.02;;;5.30;;
70744;SDS011;59284;31.390;34.904;2023-02-01T08:33:59;24.20;;;3.85;;
70744;SDS011;59284;31.390;34.904;2023-02-01T08:36:26;24.67;;;3.60;;
70744;SDS011;59284;31.390;34.904;2023-02-01T08:38:52;26.98;;;3.40;;
70744;SDS011;59284;31.390;34.904;2023-02-01T08:41:19;39.22;;;3.78;;
70744;SDS011;59284;31.390;34.904;2023-02-01T08:43:45;36.70;;;4.67;;
70744;SDS011;59284;31.390;34.904;2023-02-01T08:46:14;25.60;;;3.38;;
70744;SDS011;59284;31.390;34.904;2023-02-01T08:48:40;27.17;;;4.50;;
70744;SDS011;59284;31.390;34.904;2023-02-01T08:51:07;31.23;;;4.75;;
70744;SDS011;59284;31.390;34.904;2023-02-01T08:53:32;40.30;;;5.00;;
70744;SDS011;59284;31.390;34.904;2023-02-01T08:55:58;41.30;;;4.72;;
70744;SDS011;59284;31.390;34.904;2023-02-01T08:58:23;53.03;;;5.83;;
70744;SDS011;59284;31.390;34.904;2023-02-01T09:01:27;39.80;;;4.22;;
70744;SDS011;59284;31.390;34.904;2023-02-01T09:03:54;39.00;;;4.15;;
70744;SDS011;59284;31.390;34.904;2023-02-01T09:06:20;27.15;;;4.28;;
70744;SDS011;59284;31.390;34.904;2023-02-01T09:08:47;67.50;;;6.30;;
70744;SDS011;59284;31.390;34.904;2023-02-01T09:11:14;46.60;;;6.00;;
70744;SDS011;59284;31.390;34.904;2023-02-01T09:13:39;52.53;;;5.17;;
70744;SDS011;59284;31.390;34.904;2023-02-01T09:16:05;55.92;;;6.05;;
70744;SDS011;59284;31.390;34.904;2023-02-01T09:18:31;51.33;;;5.63;;
70744;SDS011;59284;31.390;34.904;2023-02-01T09:20:56;52.50;;;6.85;;
70744;SDS011;59284;31.390;34.904;2023-02-01T09:23:22;82.23;;;7.33;;
70744;SDS011;59284;31.390;34.904;2023-02-01T09:28:41;59.70;;;6.35;;
70744;SDS011;59284;31.390;34.904;2023-02-01T09:31:07;55.37;;;6.80;;
70744;SDS011;59284;31.390;34.904;2023-02-01T09:33:32;75.60;;;8.33;;
70744;SDS011;59284;31.390;34.904;2023-02-01T09:35:58;79.03;;;8.13;;
70744;SDS011;59284;31.390;34.904;2023-02-01T09:38:24;69.47;;;8.65;;
70744;SDS011;59284;31.390;34.904;2023-02-01T09:40:50;67.03;;;8.17;;
70744;SDS011;59284;31.390;34.904;2023-02-01T09:48:36;92.78;;;7.93;;
70744;SDS011;59284;31.390;34.904;2023-02-01T09:51:05;93.38;;;10.75;;
70744;SDS011;59284;31.390;34.904;2023-02-01T09:53:33;116.40;;;9.82;;
70744;SDS011;59284;31.390;34.904;2023-02-01T09:59:04;161.30;;;13.73;;
70744;SDS011;59284;31.390;34.904;2023-02-01T10:01:31;114.80;;;12.10;;
70744;SDS011;59284;31.390;34.904;2023-02-01T10:04:04;111.55;;;11.63;;
70744;SDS011;59284;31.390;34.904;2023-02-01T10:14:35;121.57;;;12.45;;
70744;SDS011;59284;31.390;34.904;2023-02-01T10:19:56;117.93;;;11.33;;
70744;SDS011;59284;31.390;34.904;2023-02-01T10:22:39;128.07;;;10.77;;
70744;SDS011;59284;31.390;34.904;2023-02-01T10:25:14;137.52;;;12.38;;
70744;SDS011;59284;31.390;34.904;2023-02-01T10:27:42;159.32;;;16.27;;
70744;SDS011;59284;31.390;34.904;2023-02-01T10:30:16;137.30;;;13.20;;
70744;SDS011;59284;31.390;34.904;2023-02-01T10:32:42;128.77;;;12.50;;
70744;SDS011;59284;31.390;34.904;2023-02-01T10:35:15;166.97;;;14.40;;
70744;SDS011;59284;31.390;34.904;2023-02-01T10:37:41;168.13;;;15.90;;
70744;SDS011;59284;31.390;34.904;2023-02-01T10:40:17;165.57;;;15.40;;
70744;SDS011;59284;31.390;34.904;2023-02-01T10:42:46;102.05;;;12.90;;
70744;SDS011;59284;31.390;34.904;2023-02-01T10:45:13;168.00;;;13.80;;
70744;SDS011;59284;31.390;34.904;2023-02-01T10:47:40;108.10;;;11.18;;
70744;SDS011;59284;31.390;34.904;2023-02-01T10:52:35;138.00;;;12.63;;
70744;SDS011;59284;31.390;34.904;2023-02-01T10:57:53;137.48;;;15.85;;
70744;SDS011;59284;31.390;34.904;2023-02-01T11:00:20;161.43;;;12.95;;
70744;SDS011;59284;31.390;34.904;2023-02-01T11:02:46;106.30;;;10.63;;
70744;SDS011;59284;31.390;34.904;2023-02-01T11:05:15;81.90;;;9.57;;
70744;SDS011;59284;31.390;34.904;2023-02-01T11:07:46;81.70;;;8.65;;
70744;SDS011;59284;31.390;34.904;2023-02-01T11:12:56;134.48;;;12.02;;
70744;SDS011;59284;31.390;34.904;2023-02-01T11:15:23;114.30;;;12.23;;
70744;SDS011;59284;31.390;34.904;2023-02-01T11:17:51;142.95;;;12.68;;
70744;SDS011;59284;31.390;34.904;2023-02-01T11:20:26;111.53;;;10.63;;
70744;SDS011;59284;31.390;34.904;2023-02-01T11:22:59;85.97;;;9.50;;
70744;SDS011;59284;31.390;34.904;2023-02-01T11:25:27;71.03;;;7.37;;
70744;SDS011;59284;31.390;34.904;2023-02-01T11:27:54;67.20;;;6.68;;
70744;SDS011;59284;31.390;34.904;2023-02-01T11:30:38;68.35;;;7.85;;
70744;SDS011;59284;31.390;34.904;2023-02-01T11:33:05;67.55;;;7.50;;
70744;SDS011;59284;31.390;34.904;2023-02-01T11:35:40;50.15;;;6.65;;
70744;SDS011;59284;31.390;34.904;2023-02-01T11:38:27;82.53;;;8.43;;
70744;SDS011;59284;31.390;34.904;2023-02-01T11:40:53;72.88;;;7.13;;
70744;SDS011;59284;31.390;34.904;2023-02-01T11:43:25;80.23;;;7.37;;
70744;SDS011;59284;31.390;34.904;2023-02-01T11:48:20;67.47;;;7.05;;
70744;SDS011;59284;31.390;34.904;2023-02-01T11:54:24;73.93;;;6.40;;
70744;SDS011;59284;31.390;34.904;2023-02-01T11:56:19;63.97;;;7.78;;
70744;SDS011;59284;31.390;34.904;2023-02-01T12:01:44;78.43;;;7.05;;
70744;SDS011;59284;31.390;34.904;2023-02-01T12:04:16;73.22;;;7.38;;
70744;SDS011;59284;31.390;34.904;2023-02-01T12:07:05;66.32;;;7.40;;
70744;SDS011;59284;31.390;34.904;2023-02-01T12:12:24;71.67;;;6.43;;
70744;SDS011;59284;31.390;34.904;2023-02-01T12:17:43;43.22;;;5.38;;
70744;SDS011;59284;31.390;34.904;2023-02-01T12:20:28;55.20;;;5.72;;
70744;SDS011;59284;31.390;34.904;2023-02-01T12:25:30;57.57;;;4.50;;
70744;SDS011;59284;31.390;34.904;2023-02-01T12:33:18;26.47;;;3.97;;
70744;SDS011;59284;31.390;34.904;2023-02-01T12:43:16;35.78;;;4.70;;
70744;SDS011;59284;31.390;34.904;2023-02-01T12:46:02;24.38;;;4.15;;
70744;SDS011;59284;31.390;34.904;2023-02-01T12:48:34;48.75;;;5.15;;
70744;SDS011;59284;31.390;34.904;2023-02-01T12:51:02;37.87;;;4.33;;
70744;SDS011;59284;31.390;34.904;2023-02-01T12:56:06;41.45;;;4.95;;
70744;SDS011;59284;31.390;34.904;2023-02-01T12:58:37;35.67;;;4.57;;
70744;SDS011;59284;31.390;34.904;2023-02-01T13:01:06;37.38;;;4.35;;
70744;SDS011;59284;31.390;34.904;2023-02-01T13:08:53;28.43;;;3.40;;
70744;SDS011;59284;31.390;34.904;2023-02-01T13:14:00;29.98;;;3.65;;
70744;SDS011;59284;31.390;34.904;2023-02-01T13:16:40;27.00;;;4.25;;
70744;SDS011;59284;31.390;34.904;2023-02-01T13:22:00;19.97;;;3.23;;
70744;SDS011;59284;31.390;34.904;2023-02-01T13:27:29;29.38;;;2.92;;
70744;SDS011;59284;31.390;34.904;2023-02-01T13:29:59;26.75;;;2.75;;
70744;SDS011;59284;31.390;34.904;2023-02-01T13:42:30;21.92;;;3.33;;
70744;SDS011;59284;31.390;34.904;2023-02-01T13:44:57;26.87;;;4.90;;
70744;SDS011;59284;31.390;34.904;2023-02-01T13:47:28;20.67;;;3.40;;
70744;SDS011;59284;31.390;34.904;2023-02-01T13:49:55;26.60;;;3.55;;
70744;SDS011;59284;31.390;34.904;2023-02-01T13:52:26;26.13;;;2.67;;
70744;SDS011;59284;31.390;34.904;2023-02-01T13:55:04;28.80;;;4.07;;
70744;SDS011;59284;31.390;34.904;2023-02-01T13:57:39;29.37;;;4.50;;
70744;SDS011;59284;31.390;34.904;2023-02-01T14:23:43;22.23;;;3.77;;
70744;SDS011;59284;31.390;34.904;2023-02-01T14:26:14;18.38;;;3.60;;
70744;SDS011;59284;31.390;34.904;2023-02-01T14:28:41;11.63;;;2.53;;
70744;SDS011;59284;31.390;34.904;2023-02-01T14:31:15;22.05;;;3.83;;
70744;SDS011;59284;31.390;34.904;2023-02-01T14:33:42;15.05;;;3.47;;
70744;SDS011;59284;31.390;34.904;2023-02-01T14:36:12;9.63;;;2.60;;
70744;SDS011;59284;31.390;34.904;2023-02-01T14:38:38;21.65;;;3.75;;
70744;SDS011;59284;31.390;34.904;2023-02-01T14:44:13;10.90;;;2.17;;
70744;SDS011;59284;31.390;34.904;2023-02-01T14:49:42;6.53;;;1.83;;
70744;SDS011;59284;31.390;34.904;2023-02-01T14:52:15;8.35;;;2.00;;
70744;SDS011;59284;31.390;34.904;2023-02-01T14:54:44;5.82;;;1.30;;
70744;SDS011;59284;31.390;34.904;2023-02-01T14:57:18;9.27;;;1.88;;
70744;SDS011;59284;31.390;34.904;2023-02-01T14:59:44;2.05;;;0.70;;
70744;SDS011;59284;31.390;34.904;2023-02-01T15:02:23;3.77;;;1.67;;
70744;SDS011;59284;31.390;34.904;2023-02-01T15:04:56;3.97;;;1.42;;
70744;SDS011;59284;31.390;34.904;2023-02-01T15:07:25;7.53;;;0.98;;
70744;SDS011;59284;31.390;34.904;2023-02-01T15:09:52;4.47;;;1.65;;
70744;SDS011;59284;31.390;34.904;2023-02-01T15:12:22;7.53;;;1.85;;
70744;SDS011;59284;31.390;34.904;2023-02-01T15:17:37;5.45;;;1.67;;
70744;SDS011;59284;31.390;34.904;2023-02-01T15:20:04;6.30;;;1.70;;
70744;SDS011;59284;31.390;34.904;2023-02-01T15:22:36;29.83;;;4.03;;
70744;SDS011;59284;31.390;34.904;2023-02-01T15:25:03;6.40;;;1.52;;
70744;SDS011;59284;31.390;34.904;2023-02-01T15:27:28;8.97;;;1.73;;
70744;SDS011;59284;31.390;34.904;2023-02-01T15:29:54;3.42;;;1.55;;
70744;SDS011;59284;31.390;34.904;2023-02-01T15:32:35;6.55;;;1.90;;
70744;SDS011;59284;31.390;34.904;2023-02-01T15:35:01;4.70;;;1.73;;
70744;SDS011;59284;31.390;34.904;2023-02-01T15:37:27;6.83;;;2.30;;
70744;SDS011;59284;31.390;34.904;2023-02-01T15:42:52;9.63;;;2.20;;
70744;SDS011;59284;31.390;34.904;2023-02-01T15:45:21;7.75;;;2.15;;
70744;SDS011;59284;31.390;34.904;2023-02-01T15:47:50;8.00;;;2.10;;
70744;SDS011;59284;31.390;34.904;2023-02-01T15:50:20;6.63;;;1.60;;
70744;SDS011;59284;31.390;34.904;2023-02-01T15:52:52;6.57;;;1.33;;
70744;SDS011;59284;31.390;34.904;2023-02-01T15:55:38;6.15;;;1.40;;
70744;SDS011;59284;31.390;34.904;2023-02-01T15:58:07;7.60;;;1.58;;
70744;SDS011;59284;31.390;34.904;2023-02-01T16:00:41;5.13;;;1.90;;
70744;SDS011;59284;31.390;34.904;2023-02-01T16:03:23;7.32;;;1.65;;
70744;SDS011;59284;31.390;34.904;2023-02-01T16:05:54;8.73;;;1.60;;
70744;SDS011;59284;31.390;34.904;2023-02-01T16:08:24;5.80;;;1.60;;
70744;SDS011;59284;31.390;34.904;2023-02-01T16:10:51;4.93;;;1.83;;
70744;SDS011;59284;31.390;34.904;2023-02-01T16:13:18;8.25;;;1.92;;
70744;SDS011;59284;31.390;34.904;2023-02-01T16:15:44;5.45;;;1.80;;
70744;SDS011;59284;31.390;34.904;2023-02-01T16:18:12;8.90;;;1.87;;
70744;SDS011;59284;31.390;34.904;2023-02-01T16:20:39;4.20;;;1.30;;
70744;SDS011;59284;31.390;34.904;2023-02-01T16:23:04;8.30;;;1.93;;
70744;SDS011;59284;31.390;34.904;2023-02-01T16:25:30;7.50;;;2.25;;
70744;SDS011;59284;31.390;34.904;2023-02-01T16:27:56;5.07;;;1.80;;
70744;SDS011;59284;31.390;34.904;2023-02-01T16:30:31;6.43;;;2.47;;
70744;SDS011;59284;31.390;34.904;2023-02-01T16:32:57;11.25;;;1.67;;
70744;SDS011;59284;31.390;34.904;2023-02-01T16:35:30;5.70;;;1.77;;
70744;SDS011;59284;31.390;34.904;2023-02-01T16:38:03;6.82;;;1.75;;
70744;SDS011;59284;31.390;34.904;2023-02-01T16:40:36;1.00;;;0.10;;
70744;SDS011;59284;31.390;34.904;2023-02-01T16:43:01;1.00;;;0.10;;
70744;SDS011;59284;31.390;34.904;2023-02-01T16:45:28;1.00;;;0.20;;
70744;SDS011;59284;31.390;34.904;2023-02-01T16:50:58;1.10;;;0.20;;
70744;SDS011;59284;31.390;34.904;2023-02-01T16:53:26;1.00;;;0.20;;
70744;SDS011;59284;31.390;34.904;2023-02-01T16:55:52;0.90;;;0.10;;
70744;SDS011;59284;31.390;34.904;2023-02-01T16:58:18;1.15;;;0.25;;
70744;SDS011;59284;31.390;34.904;2023-02-01T17:00:44;1.53;;;1.23;;
70744;SDS011;59284;31.390;34.904;2023-02-01T17:03:10;1.10;;;0.20;;
70744;SDS011;59284;31.390;34.904;2023-02-01T17:05:41;1.00;;;0.10;;
70744;SDS011;59284;31.390;34.904;2023-02-01T17:08:09;1.10;;;0.30;;
70744;SDS011;59284;31.390;34.904;2023-02-01T17:10:35;1.20;;;0.30;;